Terminal Aerodrome Forecast
Issued by NWS Brownsville, TX

Home | Current Version | Previous Version | Text Only | Print | Product List | Glossary On
Versions: 1 2 3 4 5 6 7 8 9 10 11 12 13
455
FTUS44 KBRO 140532
TAFHRL
TAF
KHRL 140532Z 1406/1506 17005KT P6SM BKN200
     FM141500 20008KT P6SM SCT050 OVC100
     FM141900 17012KT P6SM BKN050 OVC100
     FM150000 11006KT P6SM VCSH OVC050
     FM150300 02005KT P6SM -RA OVC035=

USA.gov is the U.S. government's official web portal to all federal, state and local government web resources and services.